Historyczne dane pomiarowe

Dodano dane terminowe – wersja testowa.

Dane z okresu 1951-2019

Wersja bazy: 1.34 [2019-03-16, lista zmian], aktualizacja planowana na 2019-04-15

Dane meteo z obszaru Polski uzyskane na podstawie danych udostępnionych przez Instytut Meteorologii i Gospodarki Wodnej – Państwowy Instytut Badawczy.

 

Wybierz Datę:    

       

TemperaturaWilgotnośćWiatrCiśnienieOpadyŚniegCzas trwania zjawisk
 Stacja t tx tn tng RH VA  wxwx mslp ppp RRR   cm mm wxwxwxwxwxwxwx
1987-08-14 12.1 17.1 5.9 6.0 83.0- 5.0 3.0---- 5.3------------
1987-08-13 12.4 19.5 5.4 3.4 72.0- 3.0 1.7---- 0.0------------
1987-08-12 12.4 17.8 7.3 4.4 78.5- 3.0 3.0---- 0.9------------
1987-08-11 13.6 17.8 10.4 8.4 77.0- 4.7 3.7---- 0.2------------
1987-08-10 15.0 18.0 12.4 11.4 81.8- 5.7 3.3---- 0.3------------
1987-08-09 17.0 23.4 10.4 7.2 66.0- 4.3 2.0---- 4.0------------
1987-08-08 14.4 19.5 8.0 4.6 71.8- 3.3 2.0---- 0.2------------
1987-08-07 9.9 14.7 6.9 6.9 86.3- 6.3 2.7---- 6.8------------
1987-08-06 10.8 15.6 8.9 6.5 80.8- 4.0 2.7---- 3.8------------
1987-08-05 12.3 17.5 9.4 6.5 78.5- 4.0 2.7---- 3.8------------
1987-08-04 15.3 17.6 14.4 12.9 80.5- 6.3 3.0---- 4.0------------
1987-08-03 14.8 19.8 10.4 8.5 76.5- 5.3 1.7---- 0.2------------
1987-08-02 14.7 18.7 11.3 10.4 71.0- 5.7 3.0---- 4.7------------
1987-08-01 15.5 20.2 11.5 10.2 80.5- 6.7 3.3---- 1.8------------
1987-07-31 15.4 21.8 13.2 13.7 83.3- 6.3 3.7---- 2.5------------
1987-07-30 18.2 23.4 9.4 6.6 73.8- 3.0 1.7---- 5.3------------
1987-07-29 14.5 18.8 10.3 8.6 71.8- 5.3 2.7---- 0.0------------
1987-07-28 13.2 15.0 12.2 11.0 86.0- 6.0 3.3---- 1.8------------
1987-07-27 12.8 16.5 7.9 6.3 74.3- 5.0 3.7---- 1.3------------
1987-07-26 12.9 18.9 10.0 11.9 86.5- 6.3 2.3---- 5.3------------
1987-07-25 19.0 23.4 14.3 12.5 79.8- 4.3 2.3---- 8.9------------
1987-07-24 21.0 29.4 16.7 15.2 81.5- 4.3 2.0---- 2.4------------
1987-07-23 19.9 26.3 11.9 10.9 73.0- 3.3 1.3---- 0.6------------
1987-07-22 18.8 23.7 15.0 15.6 79.0- 4.3 2.3---- 0.0------------
1987-07-21 18.4 24.9 10.6 8.9 78.0- 4.7 1.7---- 55.5------------
1987-07-20 19.0 22.5 16.2 16.0 84.8- 5.3 2.3---- 0.0------------
1987-07-19 21.8 27.0 19.9 18.2 81.5- 3.7 3.0---- 4.7------------
1987-07-18 23.8 29.2 16.2 14.6 75.8- 1.3 2.0---- 0.2------------
1987-07-17 23.2 30.0 11.7 14.6 71.5- 4.7 4.0---- 3.1------------
1987-07-16 20.6 27.9 11.5 9.7 70.8- 3.0 1.7---- 5.4------------
1987-07-15 17.1 24.0 7.4 5.1 67.8- 0.7 2.3---- 0.0------------
1987-07-14 15.9 21.3 8.5 5.3 66.3- 2.0 2.0---- 0.0------------
1987-07-13 18.2 22.2 14.7 13.9 72.8- 3.3 2.7---- 0.0------------
1987-07-12 20.3 27.5 16.4 14.8 69.0- 4.7 3.7---- 5.0------------
1987-07-11 17.2 23.2 8.5 6.5 66.0- 2.0 2.3---- 0.0------------
1987-07-10 14.6 18.6 10.1 8.9 69.8- 2.7 4.0---- 0.0------------
1987-07-09 17.1 23.2 13.5 15.0 82.3- 8.0 1.7---- 10.4------------
1987-07-08 21.0 27.9 12.5 8.0 64.8- 2.0 3.0---- 1.0------------
1987-07-07 19.2 26.5 7.7 4.2 62.8- 1.3 2.3---- 0.0------------
1987-07-06 18.7 24.2 8.5 4.9 59.5- 1.0 1.7---- 0.0------------
1987-07-05 15.9 19.4 10.7 7.9 74.0- 4.3 1.7---- 0.0------------
1987-07-04 18.9 23.6 12.0 8.9 70.3- 3.0 3.0---- 0.1------------
1987-07-03 18.2 21.0 14.3 11.6 73.3- 7.3 2.0---- 0.0------------
1987-07-02 18.0 26.7 15.6 16.5 80.3- 7.7 2.3---- 0.0------------
1987-07-01 24.4 28.4 17.0 14.8 73.8- 1.7 2.0---- 0.0------------
1987-06-30 22.8 29.3 14.5 12.0 74.8- 1.3 1.0---- 0.0------------
1987-06-29 21.0 25.6 15.6 12.4 75.8- 2.0 1.3---- 0.0------------
1987-06-28 18.8 23.6 9.9 8.4 72.8- 4.7 2.7---- 0.0------------
1987-06-27 16.9 21.2 14.7 12.7 85.0- 5.7 2.7---- 0.6------------
1987-06-26 16.6 23.6 9.9 7.0 70.3- 4.7 1.7---- 9.0------------
1987-06-25 14.8 18.1 12.9 12.2 77.0- 3.7 4.3---- 0.0------------
1987-06-24 16.0 20.3 11.9 10.5 72.8- 5.0 3.7---- 2.4------------
1987-06-23 15.5 19.8 12.0 12.0 77.8- 5.7 2.3---- 0.0------------
1987-06-22 15.6 19.8 11.5 10.4 84.3- 7.0 3.0---- 2.6------------
1987-06-21 17.2 23.4 8.7 5.1 72.0- 4.7 1.7---- 0.0------------
1987-06-20 15.4 21.4 7.4 4.0 67.3- 4.0 2.3---- 0.0------------
1987-06-19 12.4 17.5 7.9 6.6 68.3- 4.3 3.0---- 0.3------------
1987-06-18 10.4 13.7 6.4 3.5 78.3- 4.0 4.3---- 0.5------------
1987-06-17 12.0 15.4 8.7 7.2 69.0- 3.3 3.7---- 0.0------------
1987-06-16 13.4 23.2 9.4 11.1 82.8- 6.3 5.7---- 3.0------------
1327.9 ms

 

Źródłem pochodzenia danych jest Instytut Meteorologii i Gospodarki Wodnej – Państwowy Instytut Badawczy. Dane Instytutu Meteorologii i Gospodarki Wodnej – Państwowego Instytutu Badawczego zostały przetworzone.

Dane źródłowe można odnaleźć na stronie https://dane.imgw.pl